KCEC

Jack Mc Namara Field Airport

Crescent City, California, USA
METAR KCEC 161533Z AUTO 07003KT 2 1/2SM BR CLR 05/04 A3004 RMK AO2 T00500039
Observed Flight Rules
Nov-16 @ 15:33 UTC (32 minutes ago) Instrument Flight Rules
Wind Visibility Clouds Conditions
70° at 3 knots 2 1/2 miles
  • Clear skies
  • Mist
Temperatures Readings
Current 5°C / 41°F
Dewpoint 4°C / 39°F
Humidity 93%
Altimeter 30.04" Hg
Pressure 1017 hPa
Elevation 17
METAR KCEC 161533Z AUTO 07003KT 2 1/2SM BR CLR 05/04 A3004 RMK AO2 T00500039
Observed Flight Rules
Nov-16 @ 15:33 UTC
(32 minutes ago)
IFR
Wind Visibility
70° at 3 knots 2 1/2 miles
Clouds
  • Clear skies
Conditions
  • Mist
Temperature Dewpoint
5°C / 41°F 4°C / 39°F
Humidity Altimeter Pressure
93% 30.04" Hg 1017 hPa